sensor_id;sensor_type;location;lat;lon;timestamp;pressure;altitude;pressure_sealevel;temperature;humidity
40155;BME280;25875;48.202;16.334;2023-06-01T00:01:54;99270.09;;;18.70;39.95
40155;BME280;25875;48.202;16.334;2023-06-01T00:04:21;99311.25;;;18.89;39.97
40155;BME280;25875;48.202;16.334;2023-06-01T00:06:49;99311.53;;;18.86;39.60
40155;BME280;25875;48.202;16.334;2023-06-01T00:09:15;99308.41;;;18.81;39.72
40155;BME280;25875;48.202;16.334;2023-06-01T00:11:42;99315.31;;;18.74;40.12
40155;BME280;25875;48.202;16.334;2023-06-01T00:14:09;99315.59;;;18.71;40.35
40155;BME280;25875;48.202;16.334;2023-06-01T00:16:36;99226.38;;;18.08;40.31
40155;BME280;25875;48.202;16.334;2023-06-01T00:19:03;99312.47;;;18.66;40.36
40155;BME280;25875;48.202;16.334;2023-06-01T00:21:30;99310.91;;;18.64;40.21
40155;BME280;25875;48.202;16.334;2023-06-01T00:23:59;99314.56;;;18.63;40.23
40155;BME280;25875;48.202;16.334;2023-06-01T00:26:26;99306.94;;;18.58;40.60
40155;BME280;25875;48.202;16.334;2023-06-01T00:28:55;99304.38;;;18.56;40.43
40155;BME280;25875;48.202;16.334;2023-06-01T00:31:22;99295.00;;;18.51;40.55
40155;BME280;25875;48.202;16.334;2023-06-01T00:33:51;99297.25;;;18.46;40.88
40155;BME280;25875;48.202;16.334;2023-06-01T00:36:19;99300.34;;;18.41;40.74
40155;BME280;25875;48.202;16.334;2023-06-01T00:38:45;99297.09;;;18.38;40.85
40155;BME280;25875;48.202;16.334;2023-06-01T00:41:14;99291.97;;;18.35;41.38
40155;BME280;25875;48.202;16.334;2023-06-01T00:43:40;99295.06;;;18.30;41.10
40155;BME280;25875;48.202;16.334;2023-06-01T00:46:07;99298.16;;;18.25;41.20
40155;BME280;25875;48.202;16.334;2023-06-01T00:48:35;99109.50;;;17.14;41.46
40155;BME280;25875;48.202;16.334;2023-06-01T00:51:02;99287.69;;;18.22;41.61
40155;BME280;25875;48.202;16.334;2023-06-01T00:53:29;99262.94;;;18.09;41.36
40155;BME280;25875;48.202;16.334;2023-06-01T00:55:56;99280.06;;;18.18;41.65
40155;BME280;25875;48.202;16.334;2023-06-01T00:58:27;99282.16;;;18.14;41.73
40155;BME280;25875;48.202;16.334;2023-06-01T01:00:54;99285.09;;;18.11;41.74
40155;BME280;25875;48.202;16.334;2023-06-01T01:03:21;99286.22;;;18.09;41.62
40155;BME280;25875;48.202;16.334;2023-06-01T01:05:55;99285.06;;;18.02;42.21
40155;BME280;25875;48.202;16.334;2023-06-01T01:08:31;99237.94;;;17.78;41.92
40155;BME280;25875;48.202;16.334;2023-06-01T01:11:07;99278.72;;;18.03;42.11
40155;BME280;25875;48.202;16.334;2023-06-01T01:13:44;99278.00;;;18.01;42.84
40155;BME280;25875;48.202;16.334;2023-06-01T01:16:18;99281.66;;;18.00;42.55
40155;BME280;25875;48.202;16.334;2023-06-01T01:19:03;99278.41;;;17.96;42.44
40155;BME280;25875;48.202;16.334;2023-06-01T01:21:39;99274.72;;;17.97;42.42
40155;BME280;25875;48.202;16.334;2023-06-01T01:24:20;99286.38;;;17.86;43.62
40155;BME280;25875;48.202;16.334;2023-06-01T01:26:56;99271.09;;;17.77;42.78
40155;BME280;25875;48.202;16.334;2023-06-01T01:29:33;99280.44;;;17.83;42.55
40155;BME280;25875;48.202;16.334;2023-06-01T01:32:03;99204.22;;;17.34;42.49
40155;BME280;25875;48.202;16.334;2023-06-01T01:34:31;99282.53;;;17.79;42.67
40155;BME280;25875;48.202;16.334;2023-06-01T01:36:58;99230.75;;;17.58;42.50
40155;BME280;25875;48.202;16.334;2023-06-01T01:39:25;99269.84;;;17.81;42.34
40155;BME280;25875;48.202;16.334;2023-06-01T01:41:52;99275.59;;;17.77;42.38
40155;BME280;25875;48.202;16.334;2023-06-01T01:44:19;99198.41;;;17.29;42.69
40155;BME280;25875;48.202;16.334;2023-06-01T01:46:52;99274.16;;;17.73;43.25
40155;BME280;25875;48.202;16.334;2023-06-01T01:49:26;99274.16;;;17.73;42.83
40155;BME280;25875;48.202;16.334;2023-06-01T01:51:59;99274.03;;;17.74;42.63
40155;BME280;25875;48.202;16.334;2023-06-01T01:54:36;99264.44;;;17.72;42.70
40155;BME280;25875;48.202;16.334;2023-06-01T01:57:04;99240.88;;;17.54;42.47
40155;BME280;25875;48.202;16.334;2023-06-01T01:59:32;99060.81;;;16.47;42.31
40155;BME280;25875;48.202;16.334;2023-06-01T02:02:01;99257.19;;;17.62;42.42
40155;BME280;25875;48.202;16.334;2023-06-01T02:04:28;99263.63;;;17.60;42.37
40155;BME280;25875;48.202;16.334;2023-06-01T02:06:54;99258.41;;;17.58;42.60
40155;BME280;25875;48.202;16.334;2023-06-01T02:09:21;99237.41;;;17.43;42.36
40155;BME280;25875;48.202;16.334;2023-06-01T02:11:48;99259.63;;;17.54;42.50
40155;BME280;25875;48.202;16.334;2023-06-01T02:14:14;99231.72;;;17.36;42.26
40155;BME280;25875;48.202;16.334;2023-06-01T02:16:41;99261.00;;;17.49;42.93
40155;BME280;25875;48.202;16.334;2023-06-01T02:19:11;99256.03;;;17.44;43.05
40155;BME280;25875;48.202;16.334;2023-06-01T02:21:40;99259.09;;;17.40;43.04
40155;BME280;25875;48.202;16.334;2023-06-01T02:24:07;99250.94;;;17.41;42.73
40155;BME280;25875;48.202;16.334;2023-06-01T02:26:34;99253.41;;;17.33;42.96
40155;BME280;25875;48.202;16.334;2023-06-01T02:29:01;99255.13;;;17.34;42.95
40155;BME280;25875;48.202;16.334;2023-06-01T02:31:30;99257.94;;;17.33;43.29
40155;BME280;25875;48.202;16.334;2023-06-01T02:33:57;99250.88;;;17.31;43.27
40155;BME280;25875;48.202;16.334;2023-06-01T02:36:25;99252.97;;;17.28;43.16
40155;BME280;25875;48.202;16.334;2023-06-01T02:38:53;99254.06;;;17.25;43.19
40155;BME280;25875;48.202;16.334;2023-06-01T02:41:20;99251.53;;;17.24;43.33
40155;BME280;25875;48.202;16.334;2023-06-01T02:43:47;99254.47;;;17.21;43.46
40155;BME280;25875;48.202;16.334;2023-06-01T02:46:16;99252.13;;;17.16;43.25
40155;BME280;25875;48.202;16.334;2023-06-01T02:48:43;99249.59;;;17.15;43.79
40155;BME280;25875;48.202;16.334;2023-06-01T02:51:09;99253.38;;;17.12;43.83
40155;BME280;25875;48.202;16.334;2023-06-01T02:53:39;99246.69;;;17.07;44.18
40155;BME280;25875;48.202;16.334;2023-06-01T02:56:05;99250.47;;;17.04;43.88
40155;BME280;25875;48.202;16.334;2023-06-01T02:58:32;99251.59;;;17.02;44.09
40155;BME280;25875;48.202;16.334;2023-06-01T03:00:59;99251.84;;;16.98;44.10
40155;BME280;25875;48.202;16.334;2023-06-01T03:03:26;99244.78;;;16.97;44.51
40155;BME280;25875;48.202;16.334;2023-06-01T03:05:53;99177.41;;;16.49;44.34
40155;BME280;25875;48.202;16.334;2023-06-01T03:08:20;99258.19;;;16.97;44.35
40155;BME280;25875;48.202;16.334;2023-06-01T03:10:51;99258.31;;;16.96;44.77
40155;BME280;25875;48.202;16.334;2023-06-01T03:13:18;99112.13;;;16.09;44.59
40155;BME280;25875;48.202;16.334;2023-06-01T03:15:44;99258.91;;;16.99;44.61
40155;BME280;25875;48.202;16.334;2023-06-01T03:18:12;99252.81;;;16.97;44.54
40155;BME280;25875;48.202;16.334;2023-06-01T03:20:39;99258.19;;;16.97;44.93
40155;BME280;25875;48.202;16.334;2023-06-01T03:23:06;99254.41;;;17.00;44.26
40155;BME280;25875;48.202;16.334;2023-06-01T03:25:33;99252.56;;;17.00;44.90
40155;BME280;25875;48.202;16.334;2023-06-01T03:28:01;99248.06;;;17.01;44.66
40155;BME280;25875;48.202;16.334;2023-06-01T03:30:28;99252.44;;;17.02;44.74
40155;BME280;25875;48.202;16.334;2023-06-01T03:32:56;99248.91;;;17.02;44.49
40155;BME280;25875;48.202;16.334;2023-06-01T03:35:23;99105.44;;;16.14;44.56
40155;BME280;25875;48.202;16.334;2023-06-01T03:37:49;99259.63;;;17.02;44.81
40155;BME280;25875;48.202;16.334;2023-06-01T03:40:16;99197.69;;;16.63;44.86
40155;BME280;25875;48.202;16.334;2023-06-01T03:42:45;99251.97;;;16.97;44.75
40155;BME280;25875;48.202;16.334;2023-06-01T03:45:14;99260.13;;;16.95;44.88
40155;BME280;25875;48.202;16.334;2023-06-01T03:47:41;99203.53;;;16.57;44.95
40155;BME280;25875;48.202;16.334;2023-06-01T03:50:09;99267.44;;;16.93;44.81
40155;BME280;25875;48.202;16.334;2023-06-01T03:52:36;99260.38;;;16.92;45.03
40155;BME280;25875;48.202;16.334;2023-06-01T03:55:05;99251.38;;;16.93;45.15
40155;BME280;25875;48.202;16.334;2023-06-01T03:57:33;99258.56;;;16.93;44.93
40155;BME280;25875;48.202;16.334;2023-06-01T04:00:00;99258.44;;;16.94;45.16
40155;BME280;25875;48.202;16.334;2023-06-01T04:02:47;99247.72;;;16.94;45.98
40155;BME280;25875;48.202;16.334;2023-06-01T04:05:14;99246.03;;;16.93;45.61
40155;BME280;25875;48.202;16.334;2023-06-01T04:07:43;99200.84;;;16.68;45.59
40155;BME280;25875;48.202;16.334;2023-06-01T04:10:11;99243.34;;;16.93;45.88
40155;BME280;25875;48.202;16.334;2023-06-01T04:12:39;99243.09;;;16.96;45.80
40155;BME280;25875;48.202;16.334;2023-06-01T04:15:08;99162.59;;;16.45;45.76
40155;BME280;25875;48.202;16.334;2023-06-01T04:17:35;99241.13;;;16.98;45.93
40155;BME280;25875;48.202;16.334;2023-06-01T04:20:07;99242.72;;;17.01;46.78
40155;BME280;25875;48.202;16.334;2023-06-01T04:22:35;99243.56;;;17.02;46.47
40155;BME280;25875;48.202;16.334;2023-06-01T04:25:02;99243.31;;;17.05;46.53
40155;BME280;25875;48.202;16.334;2023-06-01T04:27:29;99243.75;;;17.10;46.30
40155;BME280;25875;48.202;16.334;2023-06-01T04:29:56;99240.25;;;17.09;46.48
40155;BME280;25875;48.202;16.334;2023-06-01T04:32:24;99242.78;;;17.11;46.18
40155;BME280;25875;48.202;16.334;2023-06-01T04:34:51;99049.72;;;15.98;46.11
40155;BME280;25875;48.202;16.334;2023-06-01T04:37:19;99246.06;;;17.14;46.34
40155;BME280;25875;48.202;16.334;2023-06-01T04:39:46;99239.59;;;17.17;46.68
40155;BME280;25875;48.202;16.334;2023-06-01T04:42:15;99251.16;;;17.17;46.24
40155;BME280;25875;48.202;16.334;2023-06-01T04:44:44;99245.78;;;17.17;46.43
40155;BME280;25875;48.202;16.334;2023-06-01T04:47:15;99248.34;;;17.19;46.51
40155;BME280;25875;48.202;16.334;2023-06-01T04:49:42;99211.81;;;16.97;46.20
40155;BME280;25875;48.202;16.334;2023-06-01T04:52:09;99245.56;;;17.20;46.09
40155;BME280;25875;48.202;16.334;2023-06-01T04:54:39;99246.53;;;17.19;46.00
40155;BME280;25875;48.202;16.334;2023-06-01T04:57:06;99243.75;;;17.21;45.80
40155;BME280;25875;48.202;16.334;2023-06-01T04:59:33;99242.75;;;17.22;45.57
40155;BME280;25875;48.202;16.334;2023-06-01T05:02:00;99243.75;;;17.21;45.89
40155;BME280;25875;48.202;16.334;2023-06-01T05:04:27;99242.75;;;17.22;45.98
40155;BME280;25875;48.202;16.334;2023-06-01T05:06:54;99249.69;;;17.24;45.62
40155;BME280;25875;48.202;16.334;2023-06-01T05:09:20;99238.13;;;17.24;45.78
40155;BME280;25875;48.202;16.334;2023-06-01T05:11:49;99244.22;;;17.26;46.14
40155;BME280;25875;48.202;16.334;2023-06-01T05:14:16;99196.13;;;16.92;45.70
40155;BME280;25875;48.202;16.334;2023-06-01T05:16:43;99238.59;;;17.29;45.42
40155;BME280;25875;48.202;16.334;2023-06-01T05:19:10;99237.34;;;17.33;45.50
40155;BME280;25875;48.202;16.334;2023-06-01T05:21:38;99237.09;;;17.36;45.47
40155;BME280;25875;48.202;16.334;2023-06-01T05:24:06;99240.63;;;17.37;45.74
40155;BME280;25875;48.202;16.334;2023-06-01T05:26:33;99246.69;;;17.39;45.31
40155;BME280;25875;48.202;16.334;2023-06-01T05:29:01;99241.94;;;17.42;45.73
40155;BME280;25875;48.202;16.334;2023-06-01T05:31:29;99193.59;;;17.23;45.67
40155;BME280;25875;48.202;16.334;2023-06-01T05:33:56;99239.72;;;17.47;45.74
40155;BME280;25875;48.202;16.334;2023-06-01T05:36:23;99233.94;;;17.52;45.42
40155;BME280;25875;48.202;16.334;2023-06-01T05:38:50;99235.38;;;17.56;45.14
40155;BME280;25875;48.202;16.334;2023-06-01T05:41:16;99237.81;;;17.59;45.35
40155;BME280;25875;48.202;16.334;2023-06-01T05:43:43;98889.97;;;15.59;45.64
40155;BME280;25875;48.202;16.334;2023-06-01T05:46:12;99237.03;;;17.68;45.18
40155;BME280;25875;48.202;16.334;2023-06-01T05:48:39;99236.66;;;17.73;45.17
40155;BME280;25875;48.202;16.334;2023-06-01T05:51:06;99230.03;;;17.77;44.91
40155;BME280;25875;48.202;16.334;2023-06-01T05:53:32;99222.97;;;17.76;45.26
40155;BME280;25875;48.202;16.334;2023-06-01T05:55:59;99233.88;;;17.84;45.42
40155;BME280;25875;48.202;16.334;2023-06-01T05:58:26;99238.13;;;17.86;45.03
40155;BME280;25875;48.202;16.334;2023-06-01T06:00:53;99238.72;;;17.90;45.22
40155;BME280;25875;48.202;16.334;2023-06-01T06:03:22;99240.28;;;17.92;45.31
40155;BME280;25875;48.202;16.334;2023-06-01T06:05:49;99232.81;;;17.96;44.58
40155;BME280;25875;48.202;16.334;2023-06-01T06:08:16;99242.56;;;17.97;44.86
40155;BME280;25875;48.202;16.334;2023-06-01T06:10:42;99239.47;;;18.02;44.49
40155;BME280;25875;48.202;16.334;2023-06-01T06:13:09;99240.75;;;18.07;44.71
40155;BME280;25875;48.202;16.334;2023-06-01T06:15:36;99245.59;;;18.13;44.52
40155;BME280;25875;48.202;16.334;2023-06-01T06:18:03;99246.75;;;18.20;44.92
40155;BME280;25875;48.202;16.334;2023-06-01T06:20:32;99240.97;;;18.25;43.89
40155;BME280;25875;48.202;16.334;2023-06-01T06:22:59;99244.09;;;18.30;43.59
40155;BME280;25875;48.202;16.334;2023-06-01T06:25:26;99241.84;;;18.35;43.54
40155;BME280;25875;48.202;16.334;2023-06-01T06:27:52;99244.00;;;18.41;43.24
40155;BME280;25875;48.202;16.334;2023-06-01T06:30:19;99242.72;;;18.45;43.22
40155;BME280;25875;48.202;16.334;2023-06-01T06:32:46;99239.63;;;18.50;42.72
40155;BME280;25875;48.202;16.334;2023-06-01T06:35:13;99230.31;;;18.44;42.32
40155;BME280;25875;48.202;16.334;2023-06-01T06:37:41;99248.16;;;18.55;42.50
40155;BME280;25875;48.202;16.334;2023-06-01T06:40:09;99205.41;;;18.33;42.16
40155;BME280;25875;48.202;16.334;2023-06-01T06:42:37;99240.53;;;18.60;42.43
40155;BME280;25875;48.202;16.334;2023-06-01T06:45:05;99224.00;;;18.55;42.11
40155;BME280;25875;48.202;16.334;2023-06-01T06:47:32;99241.41;;;18.70;41.96
40155;BME280;25875;48.202;16.334;2023-06-01T06:49:58;99243.53;;;18.76;41.56
40155;BME280;25875;48.202;16.334;2023-06-01T06:52:26;99241.00;;;18.84;41.62
40155;BME280;25875;48.202;16.334;2023-06-01T06:54:54;99249.50;;;18.89;41.59
40155;BME280;25875;48.202;16.334;2023-06-01T06:57:21;99252.59;;;18.95;41.71
40155;BME280;25875;48.202;16.334;2023-06-01T06:59:48;99240.03;;;19.05;41.75
40155;BME280;25875;48.202;16.334;2023-06-01T07:02:16;99247.09;;;19.15;41.71
40155;BME280;25875;48.202;16.334;2023-06-01T07:04:43;99242.72;;;19.24;41.47
40155;BME280;25875;48.202;16.334;2023-06-01T07:07:09;99245.25;;;19.35;41.20
40155;BME280;25875;48.202;16.334;2023-06-01T07:09:36;99239.47;;;19.49;40.83
40155;BME280;25875;48.202;16.334;2023-06-01T07:12:06;99241.13;;;19.70;40.49
40155;BME280;25875;48.202;16.334;2023-06-01T07:14:33;99239.25;;;19.90;40.63
40155;BME280;25875;48.202;16.334;2023-06-01T07:17:00;99236.34;;;20.10;39.73
40155;BME280;25875;48.202;16.334;2023-06-01T07:19:27;99245.66;;;20.26;39.54
40155;BME280;25875;48.202;16.334;2023-06-01T07:21:58;99239.22;;;20.36;39.48
40155;BME280;25875;48.202;16.334;2023-06-01T07:24:25;99174.69;;;20.27;39.12
40155;BME280;25875;48.202;16.334;2023-06-01T07:26:53;99227.00;;;20.87;38.60
40155;BME280;25875;48.202;16.334;2023-06-01T07:29:22;99221.56;;;21.14;38.40
40155;BME280;25875;48.202;16.334;2023-06-01T07:31:50;99211.84;;;21.39;38.23
40155;BME280;25875;48.202;16.334;2023-06-01T07:34:17;99216.72;;;21.62;38.17
40155;BME280;25875;48.202;16.334;2023-06-01T07:36:45;99183.47;;;21.53;38.09
40155;BME280;25875;48.202;16.334;2023-06-01T07:39:13;99184.22;;;21.89;37.44
40155;BME280;25875;48.202;16.334;2023-06-01T07:41:40;99212.59;;;22.35;37.32
40155;BME280;25875;48.202;16.334;2023-06-01T07:44:08;99186.09;;;22.39;36.71
40155;BME280;25875;48.202;16.334;2023-06-01T07:46:38;99211.94;;;22.84;35.97
40155;BME280;25875;48.202;16.334;2023-06-01T07:49:05;99207.88;;;22.80;35.84
40155;BME280;25875;48.202;16.334;2023-06-01T07:51:32;99207.25;;;23.18;35.76
40155;BME280;25875;48.202;16.334;2023-06-01T07:53:59;99207.44;;;23.33;35.58
40155;BME280;25875;48.202;16.334;2023-06-01T07:56:26;99178.22;;;23.28;35.63
40155;BME280;25875;48.202;16.334;2023-06-01T07:58:54;99205.41;;;23.51;35.15
40155;BME280;25875;48.202;16.334;2023-06-01T08:01:21;99203.00;;;23.73;34.76
40155;BME280;25875;48.202;16.334;2023-06-01T08:03:49;99168.88;;;23.63;34.19
40155;BME280;25875;48.202;16.334;2023-06-01T08:06:17;99175.13;;;23.64;34.24
40155;BME280;25875;48.202;16.334;2023-06-01T08:08:44;99206.03;;;23.86;34.03
40155;BME280;25875;48.202;16.334;2023-06-01T08:11:19;99194.34;;;24.02;33.79
40155;BME280;25875;48.202;16.334;2023-06-01T08:13:47;99195.44;;;24.23;33.82
40155;BME280;25875;48.202;16.334;2023-06-01T08:16:14;99191.09;;;24.45;33.58
40155;BME280;25875;48.202;16.334;2023-06-01T08:18:41;99192.03;;;24.69;33.64
40155;BME280;25875;48.202;16.334;2023-06-01T08:21:09;99191.84;;;24.93;32.89
40155;BME280;25875;48.202;16.334;2023-06-01T08:23:36;99180.63;;;25.04;32.77
40155;BME280;25875;48.202;16.334;2023-06-01T08:26:04;99150.84;;;24.96;32.69
40155;BME280;25875;48.202;16.334;2023-06-01T08:28:30;99179.53;;;25.36;32.57
40155;BME280;25875;48.202;16.334;2023-06-01T08:30:58;99183.31;;;25.50;32.07
40155;BME280;25875;48.202;16.334;2023-06-01T08:33:26;99184.34;;;25.49;32.02
40155;BME280;25875;48.202;16.334;2023-06-01T08:35:53;99165.25;;;25.57;31.96
40155;BME280;25875;48.202;16.334;2023-06-01T08:38:22;99177.63;;;25.74;31.89
40155;BME280;25875;48.202;16.334;2023-06-01T08:40:52;99172.22;;;25.74;31.14
40155;BME280;25875;48.202;16.334;2023-06-01T08:43:20;99180.72;;;25.71;31.72
40155;BME280;25875;48.202;16.334;2023-06-01T08:45:48;99169.13;;;25.77;31.40
40155;BME280;25875;48.202;16.334;2023-06-01T08:48:20;98881.41;;;23.92;31.35
40155;BME280;25875;48.202;16.334;2023-06-01T08:50:49;99115.41;;;25.58;31.13
40155;BME280;25875;48.202;16.334;2023-06-01T08:53:17;99166.72;;;25.97;31.12
40155;BME280;25875;48.202;16.334;2023-06-01T08:55:50;99143.38;;;25.88;29.55
40155;BME280;25875;48.202;16.334;2023-06-01T08:58:18;99154.25;;;26.17;30.50
40155;BME280;25875;48.202;16.334;2023-06-01T09:00:47;99153.56;;;26.30;30.31
40155;BME280;25875;48.202;16.334;2023-06-01T09:03:14;99147.47;;;26.43;30.42
40155;BME280;25875;48.202;16.334;2023-06-01T09:05:41;99149.22;;;26.50;29.91
40155;BME280;25875;48.202;16.334;2023-06-01T09:08:09;99146.88;;;26.62;29.97
40155;BME280;25875;48.202;16.334;2023-06-01T09:10:36;99126.25;;;26.53;29.42
40155;BME280;25875;48.202;16.334;2023-06-01T09:13:04;99110.00;;;26.60;29.96
40155;BME280;25875;48.202;16.334;2023-06-01T09:15:31;99119.25;;;26.80;29.83
40155;BME280;25875;48.202;16.334;2023-06-01T09:18:08;99135.53;;;27.01;28.13
40155;BME280;25875;48.202;16.334;2023-06-01T09:20:36;99103.00;;;26.86;29.23
40155;BME280;25875;48.202;16.334;2023-06-01T09:23:04;99139.56;;;27.05;28.69
40155;BME280;25875;48.202;16.334;2023-06-01T09:25:32;99131.28;;;26.92;29.17
40155;BME280;25875;48.202;16.334;2023-06-01T09:28:00;99062.63;;;26.62;29.37
40155;BME280;25875;48.202;16.334;2023-06-01T09:30:40;99123.09;;;27.13;27.09
40155;BME280;25875;48.202;16.334;2023-06-01T09:33:10;99123.75;;;27.15;27.96
40155;BME280;25875;48.202;16.334;2023-06-01T09:35:40;99127.91;;;27.11;28.41
40155;BME280;25875;48.202;16.334;2023-06-01T09:38:08;98837.78;;;25.36;28.54
40155;BME280;25875;48.202;16.334;2023-06-01T09:40:43;99125.56;;;27.08;27.64
40155;BME280;25875;48.202;16.334;2023-06-01T09:43:21;99126.59;;;27.07;28.24
40155;BME280;25875;48.202;16.334;2023-06-01T09:46:07;99122.00;;;27.08;26.46
40155;BME280;25875;48.202;16.334;2023-06-01T09:48:34;99120.22;;;26.94;28.61
40155;BME280;25875;48.202;16.334;2023-06-01T09:51:03;99117.81;;;26.84;28.43
40155;BME280;25875;48.202;16.334;2023-06-01T09:53:39;99117.31;;;26.74;26.63
40155;BME280;25875;48.202;16.334;2023-06-01T09:56:07;99114.97;;;26.71;28.42
40155;BME280;25875;48.202;16.334;2023-06-01T09:58:34;99113.75;;;26.73;28.17
40155;BME280;25875;48.202;16.334;2023-06-01T10:01:12;99116.25;;;26.75;26.96
40155;BME280;25875;48.202;16.334;2023-06-01T10:03:42;99107.06;;;26.76;28.02
40155;BME280;25875;48.202;16.334;2023-06-01T10:06:10;99105.66;;;26.80;28.26
40155;BME280;25875;48.202;16.334;2023-06-01T10:08:38;99079.44;;;26.72;28.24
40155;BME280;25875;48.202;16.334;2023-06-01T10:11:08;99112.69;;;26.96;28.43
40155;BME280;25875;48.202;16.334;2023-06-01T10:13:35;99100.78;;;26.97;28.21
40155;BME280;25875;48.202;16.334;2023-06-01T10:16:02;99088.31;;;26.81;28.45
40155;BME280;25875;48.202;16.334;2023-06-01T10:18:32;99070.19;;;26.67;28.00
40155;BME280;25875;48.202;16.334;2023-06-01T10:20:59;99100.22;;;26.80;28.40
40155;BME280;25875;48.202;16.334;2023-06-01T10:23:26;99096.84;;;26.78;28.45
40155;BME280;25875;48.202;16.334;2023-06-01T10:25:53;99091.28;;;26.86;27.97
40155;BME280;25875;48.202;16.334;2023-06-01T10:28:21;99065.72;;;26.80;28.10
40155;BME280;25875;48.202;16.334;2023-06-01T10:33:54;99067.69;;;26.93;27.18
40155;BME280;25875;48.202;16.334;2023-06-01T10:36:21;99081.47;;;27.13;27.99
40155;BME280;25875;48.202;16.334;2023-06-01T10:38:48;99082.56;;;27.18;27.90
40155;BME280;25875;48.202;16.334;2023-06-01T10:41:28;99007.91;;;26.72;26.78
40155;BME280;25875;48.202;16.334;2023-06-01T10:43:56;99070.38;;;27.14;27.79
40155;BME280;25875;48.202;16.334;2023-06-01T10:46:38;99074.47;;;27.25;27.24
40155;BME280;25875;48.202;16.334;2023-06-01T10:49:12;99059.00;;;27.26;27.73
40155;BME280;25875;48.202;16.334;2023-06-01T10:51:39;99077.03;;;27.33;27.99
40155;BME280;25875;48.202;16.334;2023-06-01T10:54:28;99064.88;;;27.29;27.09
40155;BME280;25875;48.202;16.334;2023-06-01T10:57:22;99065.28;;;27.26;26.76
40155;BME280;25875;48.202;16.334;2023-06-01T11:00:14;99064.44;;;27.26;26.50
40155;BME280;25875;48.202;16.334;2023-06-01T11:02:59;99064.34;;;27.19;26.12
40155;BME280;25875;48.202;16.334;2023-06-01T11:05:45;99057.88;;;27.20;26.26
40155;BME280;25875;48.202;16.334;2023-06-01T11:08:50;99052.72;;;27.25;27.79
40155;BME280;25875;48.202;16.334;2023-06-01T11:11:18;99031.50;;;27.21;27.92
40155;BME280;25875;48.202;16.334;2023-06-01T11:14:11;98931.03;;;26.78;26.59
40155;BME280;25875;48.202;16.334;2023-06-01T11:16:38;99050.78;;;27.54;27.27
40155;BME280;25875;48.202;16.334;2023-06-01T11:19:06;99036.00;;;27.63;27.45
40155;BME280;25875;48.202;16.334;2023-06-01T11:21:37;99039.81;;;27.68;26.92
40155;BME280;25875;48.202;16.334;2023-06-01T11:24:07;99040.03;;;27.73;27.05
40155;BME280;25875;48.202;16.334;2023-06-01T11:26:39;99037.06;;;27.68;26.72
40155;BME280;25875;48.202;16.334;2023-06-01T11:29:11;99030.38;;;27.71;27.30
40155;BME280;25875;48.202;16.334;2023-06-01T11:31:42;99026.44;;;27.73;27.11
40155;BME280;25875;48.202;16.334;2023-06-01T11:34:10;99028.31;;;27.73;26.70
40155;BME280;25875;48.202;16.334;2023-06-01T11:36:42;99019.50;;;27.71;26.66
40155;BME280;25875;48.202;16.334;2023-06-01T11:39:23;99015.00;;;27.57;27.03
40155;BME280;25875;48.202;16.334;2023-06-01T11:41:52;99021.09;;;27.59;27.65
40155;BME280;25875;48.202;16.334;2023-06-01T11:44:21;99010.88;;;27.61;27.13
40155;BME280;25875;48.202;16.334;2023-06-01T11:46:53;99009.22;;;27.66;28.81
40155;BME280;25875;48.202;16.334;2023-06-01T11:49:21;98947.94;;;27.42;27.92
40155;BME280;25875;48.202;16.334;2023-06-01T11:51:50;99005.34;;;27.89;27.43
40155;BME280;25875;48.202;16.334;2023-06-01T11:54:22;99002.16;;;27.78;27.19
40155;BME280;25875;48.202;16.334;2023-06-01T11:56:50;98973.84;;;27.66;27.30
40155;BME280;25875;48.202;16.334;2023-06-01T11:59:20;98705.22;;;26.04;27.33
40155;BME280;25875;48.202;16.334;2023-06-01T12:01:49;98988.94;;;27.75;27.02
40155;BME280;25875;48.202;16.334;2023-06-01T12:04:20;98933.88;;;27.32;26.83
40155;BME280;25875;48.202;16.334;2023-06-01T12:06:47;98990.56;;;27.63;26.90
40155;BME280;25875;48.202;16.334;2023-06-01T12:09:17;98990.50;;;27.57;26.59
40155;BME280;25875;48.202;16.334;2023-06-01T12:11:46;98989.31;;;27.66;26.97
40155;BME280;25875;48.202;16.334;2023-06-01T12:14:14;98985.75;;;27.65;26.56
40155;BME280;25875;48.202;16.334;2023-06-01T12:16:58;98966.06;;;27.63;26.59
40155;BME280;25875;48.202;16.334;2023-06-01T12:19:26;98967.34;;;27.67;27.25
40155;BME280;25875;48.202;16.334;2023-06-01T12:21:56;98957.72;;;27.71;27.04
40155;BME280;25875;48.202;16.334;2023-06-01T12:24:29;98964.53;;;27.54;26.29
40155;BME280;25875;48.202;16.334;2023-06-01T12:26:57;98965.31;;;27.41;27.68
40155;BME280;25875;48.202;16.334;2023-06-01T12:29:37;98960.75;;;27.48;27.18
40155;BME280;25875;48.202;16.334;2023-06-01T12:32:05;98957.28;;;27.61;27.02
40155;BME280;25875;48.202;16.334;2023-06-01T12:34:32;98953.50;;;27.62;26.64
40155;BME280;25875;48.202;16.334;2023-06-01T12:37:10;98855.78;;;26.85;25.97
40155;BME280;25875;48.202;16.334;2023-06-01T12:39:39;98873.63;;;27.01;26.79
40155;BME280;25875;48.202;16.334;2023-06-01T12:42:07;98953.72;;;27.61;27.12
40155;BME280;25875;48.202;16.334;2023-06-01T12:44:34;98946.19;;;27.69;27.37
40155;BME280;25875;48.202;16.334;2023-06-01T12:47:02;98946.84;;;27.71;27.25
40155;BME280;25875;48.202;16.334;2023-06-01T12:49:29;98937.41;;;27.74;27.50
40155;BME280;25875;48.202;16.334;2023-06-01T12:51:56;98798.47;;;26.86;27.01
40155;BME280;25875;48.202;16.334;2023-06-01T12:54:24;98933.84;;;27.67;27.26
40155;BME280;25875;48.202;16.334;2023-06-01T12:56:52;98932.81;;;27.74;26.69
40155;BME280;25875;48.202;16.334;2023-06-01T12:59:19;98890.63;;;27.50;26.81
40155;BME280;25875;48.202;16.334;2023-06-01T13:01:47;98857.94;;;27.44;26.67
40155;BME280;25875;48.202;16.334;2023-06-01T13:04:14;98925.75;;;27.87;27.57